createdAt,value
2019-03-22T00:01:38.328Z,90.23
2019-03-22T00:04:10.508Z,88.57
2019-03-22T00:06:42.878Z,88.40
2019-03-22T00:09:18.210Z,89.20
2019-03-22T00:11:50.005Z,88.57
2019-03-22T00:14:22.409Z,96.07
2019-03-22T00:16:54.362Z,89.83
2019-03-22T00:19:26.390Z,86.83
2019-03-22T00:21:58.586Z,91.23
2019-03-22T00:24:31.110Z,90.10
2019-03-22T00:27:03.138Z,91.80
2019-03-22T00:29:35.437Z,94.20
2019-03-22T00:32:07.561Z,92.03
2019-03-22T00:34:39.753Z,101.90
2019-03-22T00:37:12.058Z,101.33
2019-03-22T00:39:44.245Z,99.30
2019-03-22T00:42:16.792Z,97.70
2019-03-22T00:44:49.598Z,92.57
2019-03-22T00:47:21.468Z,93.47
2019-03-22T00:49:53.716Z,92.00
2019-03-22T00:52:25.475Z,86.47
2019-03-22T00:54:57.673Z,93.27
2019-03-22T00:57:30.721Z,97.33
2019-03-22T01:00:03.517Z,97.60
2019-03-22T01:02:35.429Z,91.30
2019-03-22T01:05:08.988Z,92.27
2019-03-22T01:07:40.952Z,89.30
2019-03-22T01:10:14.848Z,91.13
2019-03-22T01:12:47.719Z,93.03
2019-03-22T01:15:19.550Z,92.53
2019-03-22T01:17:51.492Z,89.27
2019-03-22T01:20:24.302Z,81.70
2019-03-22T01:22:55.986Z,86.77
2019-03-22T01:25:27.700Z,92.10
2019-03-22T01:28:00.114Z,93.10
2019-03-22T01:30:32.156Z,88.00
2019-03-22T01:33:04.359Z,89.93
2019-03-22T01:35:36.045Z,87.20
2019-03-22T01:38:08.102Z,82.37
2019-03-22T01:40:41.202Z,81.83
2019-03-22T01:43:13.028Z,76.33
2019-03-22T01:45:45.708Z,75.67
2019-03-22T01:48:18.282Z,78.23
2019-03-22T01:50:50.749Z,81.00
2019-03-22T01:53:23.196Z,84.67
2019-03-22T01:55:55.268Z,82.13
2019-03-22T01:58:27.246Z,77.10
2019-03-22T02:00:59.467Z,82.10
2019-03-22T02:03:33.307Z,84.20
2019-03-22T02:06:06.082Z,78.63
2019-03-22T02:08:38.227Z,79.80
2019-03-22T02:11:09.956Z,80.33
2019-03-22T02:13:42.383Z,83.07
2019-03-22T02:16:14.086Z,78.07
2019-03-22T02:18:46.172Z,85.20
2019-03-22T02:21:18.272Z,83.70
2019-03-22T02:23:52.200Z,86.20
2019-03-22T02:26:23.956Z,85.97
2019-03-22T02:28:56.188Z,81.23
2019-03-22T02:31:28.315Z,83.87
2019-03-22T02:33:59.922Z,85.63
2019-03-22T02:36:31.770Z,84.87
2019-03-22T02:39:03.827Z,82.10
2019-03-22T02:41:36.118Z,85.03
2019-03-22T02:44:08.267Z,79.87
2019-03-22T02:46:40.517Z,87.70
2019-03-22T02:49:15.427Z,79.40
2019-03-22T02:51:47.466Z,81.20
2019-03-22T02:54:19.566Z,83.20
2019-03-22T02:56:51.254Z,79.93
2019-03-22T02:59:23.504Z,75.87
2019-03-22T03:01:55.762Z,80.37
2019-03-22T03:04:28.672Z,75.07
2019-03-22T03:07:01.657Z,75.70
2019-03-22T03:09:33.609Z,74.87
2019-03-22T03:12:06.011Z,77.70
2019-03-22T03:14:38.815Z,75.63
2019-03-22T03:17:10.465Z,80.60
2019-03-22T03:19:42.782Z,76.47
2019-03-22T03:22:14.824Z,75.73
2019-03-22T03:24:47.125Z,77.73
2019-03-22T03:27:19.523Z,76.40
2019-03-22T03:29:51.522Z,76.57
2019-03-22T03:32:24.436Z,78.53
2019-03-22T03:34:56.652Z,74.23
2019-03-22T03:37:28.765Z,76.10
2019-03-22T03:40:11.065Z,77.30
2019-03-22T03:42:43.365Z,74.97
2019-03-22T03:45:34.651Z,74.33
2019-03-22T03:48:08.053Z,74.47
2019-03-22T03:50:41.356Z,71.00
2019-03-22T03:53:15.152Z,73.73
2019-03-22T03:55:47.111Z,74.53
2019-03-22T03:58:18.799Z,70.40
2019-03-22T04:00:51.076Z,74.50
2019-03-22T04:03:23.404Z,73.13
2019-03-22T04:05:55.241Z,70.83
2019-03-22T04:08:27.478Z,71.90
2019-03-22T04:10:59.662Z,72.33
2019-03-22T04:13:31.798Z,70.97
2019-03-22T04:16:06.601Z,70.40
2019-03-22T04:18:38.795Z,68.40
2019-03-22T04:21:10.429Z,68.70
2019-03-22T04:23:43.351Z,67.10
2019-03-22T04:26:15.226Z,65.47
2019-03-22T04:28:47.439Z,68.60
2019-03-22T04:31:19.283Z,68.37
2019-03-22T04:33:51.151Z,69.70
2019-03-22T04:36:23.247Z,71.10
2019-03-22T04:38:54.920Z,71.03
2019-03-22T04:41:28.194Z,72.60
2019-03-22T04:44:00.404Z,72.00
2019-03-22T04:46:34.400Z,73.53
2019-03-22T04:49:07.170Z,74.10
2019-03-22T04:51:39.348Z,72.37
2019-03-22T04:54:13.005Z,70.77
2019-03-22T04:56:47.717Z,71.90
2019-03-22T04:59:21.361Z,69.60
2019-03-22T05:01:55.789Z,68.80
2019-03-22T05:04:29.025Z,70.40
2019-03-22T05:07:02.027Z,72.57
2019-03-22T05:09:36.025Z,67.70
2019-03-22T05:12:09.023Z,67.37
2019-03-22T05:14:42.625Z,71.40
2019-03-22T05:17:16.239Z,71.83
2019-03-22T05:19:53.042Z,75.77
2019-03-22T05:22:26.512Z,72.47
2019-03-22T05:25:01.103Z,72.87
2019-03-22T05:27:36.555Z,73.83
2019-03-22T05:30:11.675Z,73.67
2019-03-22T05:32:43.861Z,73.70
2019-03-22T05:35:16.111Z,72.30
2019-03-22T05:37:48.192Z,69.30
2019-03-22T05:40:20.538Z,68.00
2019-03-22T05:42:52.358Z,72.63
2019-03-22T05:45:25.093Z,76.47
2019-03-22T05:47:56.805Z,71.57
2019-03-22T05:50:29.039Z,76.87
2019-03-22T05:53:01.487Z,76.33
2019-03-22T05:55:33.857Z,77.13
2019-03-22T05:58:05.909Z,78.47
2019-03-22T06:00:38.230Z,74.97
2019-03-22T06:03:10.235Z,77.63
2019-03-22T06:05:42.157Z,72.17
2019-03-22T06:08:14.753Z,75.00
2019-03-22T06:10:46.922Z,76.80
2019-03-22T06:13:18.661Z,74.37
2019-03-22T06:15:50.780Z,72.73
2019-03-22T06:18:23.079Z,71.40
2019-03-22T06:20:57.433Z,70.83
2019-03-22T06:23:29.057Z,70.53
2019-03-22T06:26:00.557Z,67.83
2019-03-22T06:28:32.840Z,72.03
2019-03-22T06:31:07.402Z,73.80
2019-03-22T06:33:38.956Z,71.20
2019-03-22T06:36:11.736Z,70.50
2019-03-22T06:38:44.037Z,71.47
2019-03-22T06:41:17.605Z,69.90
2019-03-22T06:43:50.080Z,76.87
2019-03-22T06:46:23.750Z,76.17
2019-03-22T06:48:55.771Z,69.77
2019-03-22T06:51:28.670Z,73.73
2019-03-22T06:54:00.325Z,75.50
2019-03-22T06:56:34.295Z,69.07
2019-03-22T06:59:07.158Z,73.73
2019-03-22T07:01:38.868Z,69.70
2019-03-22T07:04:10.378Z,73.43
2019-03-22T07:06:43.606Z,69.30
2019-03-22T07:09:15.507Z,70.90
2019-03-22T07:11:47.270Z,66.43
2019-03-22T07:14:18.722Z,72.07
2019-03-22T07:16:50.761Z,66.10
2019-03-22T07:19:22.650Z,71.47
2019-03-22T07:21:53.884Z,67.40
2019-03-22T07:24:25.147Z,65.23
2019-03-22T07:26:56.609Z,65.63
2019-03-22T07:29:28.307Z,67.57
2019-03-22T07:32:01.188Z,68.70
2019-03-22T07:34:33.427Z,66.97
2019-03-22T07:37:04.906Z,67.37
2019-03-22T07:39:37.049Z,70.23
2019-03-22T07:42:09.043Z,65.63
2019-03-22T07:44:40.678Z,63.47
2019-03-22T07:47:13.378Z,67.10
2019-03-22T07:49:45.204Z,65.07
2019-03-22T07:52:17.922Z,63.97
2019-03-22T07:54:49.721Z,63.13
2019-03-22T07:57:21.665Z,62.90
2019-03-22T07:59:53.363Z,63.60
2019-03-22T08:02:25.734Z,61.00
2019-03-22T08:04:58.775Z,59.17
2019-03-22T08:07:31.530Z,62.47
2019-03-22T08:10:03.916Z,59.63
2019-03-22T08:12:37.320Z,62.13
2019-03-22T08:15:09.870Z,60.80
2019-03-22T08:17:41.905Z,60.00
2019-03-22T08:20:14.097Z,56.17
2019-03-22T08:22:46.352Z,59.13
2019-03-22T08:25:18.796Z,59.70
2019-03-22T08:27:50.502Z,59.33
2019-03-22T08:30:22.600Z,58.17
2019-03-22T08:32:55.586Z,58.77
2019-03-22T08:35:28.165Z,60.17
2019-03-22T08:38:01.381Z,57.97
2019-03-22T08:40:33.178Z,55.20
2019-03-22T08:43:05.359Z,56.33
2019-03-22T08:45:37.487Z,56.77
2019-03-22T08:48:09.336Z,55.97
2019-03-22T08:50:41.149Z,59.60
2019-03-22T08:53:13.158Z,60.07
2019-03-22T08:55:45.552Z,62.30
2019-03-22T08:58:18.851Z,55.67
2019-03-22T09:00:57.490Z,54.67
2019-03-22T09:03:25.284Z,56.73
2019-03-22T09:05:56.772Z,53.80
2019-03-22T09:08:29.663Z,54.10
2019-03-22T09:11:02.411Z,51.00
2019-03-22T09:13:34.630Z,49.50
2019-03-22T09:16:06.990Z,48.53
2019-03-22T09:18:41.271Z,46.90
2019-03-22T09:21:13.524Z,48.37
2019-03-22T09:23:46.121Z,49.37
2019-03-22T09:26:20.072Z,52.43
2019-03-22T09:28:55.047Z,48.60
2019-03-22T09:31:28.437Z,44.63
2019-03-22T09:34:00.643Z,46.10
2019-03-22T09:36:32.732Z,44.27
2019-03-22T09:39:06.603Z,49.47
2019-03-22T09:41:39.844Z,46.00
2019-03-22T09:44:11.936Z,48.43
2019-03-22T09:46:44.961Z,42.97
2019-03-22T09:49:17.392Z,36.67
2019-03-22T09:51:49.048Z,41.07
2019-03-22T09:54:21.599Z,32.70
2019-03-22T09:56:53.361Z,28.83
2019-03-22T09:59:25.092Z,30.90
2019-03-22T10:01:57.282Z,67.27
2019-03-22T10:04:29.951Z,33.63
2019-03-22T10:07:02.582Z,30.37
2019-03-22T10:09:35.333Z,36.40
2019-03-22T10:12:07.908Z,33.47
2019-03-22T10:14:42.900Z,34.50
2019-03-22T10:17:17.972Z,35.50
2019-03-22T10:19:50.446Z,35.30
2019-03-22T10:22:22.368Z,33.13
2019-03-22T10:24:54.050Z,33.37
2019-03-22T10:27:25.882Z,36.07
2019-03-22T10:29:57.904Z,34.33
2019-03-22T10:32:30.011Z,35.00
2019-03-22T10:35:02.627Z,35.30
2019-03-22T10:37:35.183Z,35.73
2019-03-22T10:40:08.103Z,36.90
2019-03-22T10:42:40.477Z,35.20
2019-03-22T10:45:13.071Z,34.70
2019-03-22T10:47:46.950Z,37.40
2019-03-22T10:50:19.308Z,36.10
2019-03-22T10:52:51.555Z,36.50
2019-03-22T10:55:30.289Z,35.77
2019-03-22T10:57:57.926Z,37.13
2019-03-22T11:00:30.729Z,34.63
2019-03-22T11:03:03.823Z,37.60
2019-03-22T11:05:35.886Z,37.87
2019-03-22T11:08:08.040Z,38.10
2019-03-22T11:10:44.442Z,38.00
2019-03-22T11:13:16.571Z,36.40
2019-03-22T11:15:48.996Z,36.60
2019-03-22T11:18:21.239Z,38.90
2019-03-22T11:21:04.441Z,36.23
2019-03-22T11:23:28.926Z,36.33
2019-03-22T11:26:04.383Z,36.17
2019-03-22T11:28:37.500Z,37.37
2019-03-22T11:31:10.861Z,37.27
2019-03-22T11:33:43.257Z,35.60
2019-03-22T11:36:15.541Z,38.30
2019-03-22T11:38:49.983Z,37.90
2019-03-22T11:41:23.121Z,38.97
2019-03-22T11:43:55.002Z,37.97
2019-03-22T11:46:26.890Z,37.40
2019-03-22T11:48:58.569Z,37.00
2019-03-22T11:51:30.645Z,38.10
2019-03-22T11:54:02.348Z,38.60
2019-03-22T11:56:35.028Z,38.63
2019-03-22T11:59:07.629Z,38.50
2019-03-22T12:01:39.641Z,36.03
2019-03-22T12:04:11.960Z,39.90
2019-03-22T12:06:44.311Z,38.40
2019-03-22T12:09:15.645Z,37.40
2019-03-22T12:11:47.241Z,39.60
2019-03-22T12:14:19.066Z,39.00
2019-03-22T12:16:51.073Z,40.10
2019-03-22T12:19:22.955Z,37.33
2019-03-22T12:21:55.071Z,39.50
2019-03-22T12:24:27.004Z,42.40
2019-03-22T12:26:58.916Z,40.43
2019-03-22T12:29:31.150Z,40.00
2019-03-22T12:32:03.081Z,40.00
2019-03-22T12:34:34.830Z,40.30
2019-03-22T12:37:06.812Z,38.73
2019-03-22T12:39:38.505Z,39.00
2019-03-22T12:42:11.272Z,37.83
2019-03-22T12:44:44.030Z,41.60
2019-03-22T12:47:15.403Z,41.60
2019-03-22T12:49:47.000Z,41.10
2019-03-22T12:52:19.373Z,39.17
2019-03-22T12:54:51.956Z,42.33
2019-03-22T12:57:24.034Z,40.70
2019-03-22T12:59:56.532Z,45.23
2019-03-22T13:02:28.206Z,43.50
2019-03-22T13:04:59.832Z,40.83
2019-03-22T13:07:31.585Z,44.10
2019-03-22T13:10:04.550Z,45.50
2019-03-22T13:12:36.246Z,46.63
2019-03-22T13:15:09.493Z,47.67
2019-03-22T13:17:41.934Z,46.97
2019-03-22T13:20:14.321Z,46.40
2019-03-22T13:22:47.558Z,45.87
2019-03-22T13:25:21.222Z,45.10
2019-03-22T13:27:54.274Z,44.23
2019-03-22T13:30:39.644Z,47.07
2019-03-22T13:33:11.359Z,46.67
2019-03-22T13:35:42.951Z,48.03
2019-03-22T13:38:14.822Z,48.77
2019-03-22T13:40:48.364Z,45.60
2019-03-22T13:43:20.950Z,47.20
2019-03-22T13:45:54.204Z,48.73
2019-03-22T13:48:27.760Z,43.80
2019-03-22T13:51:00.898Z,46.40
2019-03-22T13:53:32.815Z,47.60
2019-03-22T13:56:06.588Z,44.97
2019-03-22T13:58:39.355Z,45.47
2019-03-22T14:01:14.327Z,44.50
2019-03-22T14:03:46.144Z,45.07
2019-03-22T14:06:22.192Z,45.20
2019-03-22T14:08:54.116Z,41.33
2019-03-22T14:11:26.093Z,39.70
2019-03-22T14:13:58.274Z,40.70
2019-03-22T14:16:30.273Z,38.93
2019-03-22T14:19:12.012Z,38.60
2019-03-22T14:21:43.841Z,37.40
2019-03-22T14:24:15.547Z,35.37
2019-03-22T14:26:48.404Z,35.73
2019-03-22T14:29:20.069Z,36.37
2019-03-22T14:31:51.756Z,36.93
2019-03-22T14:34:23.511Z,41.70
2019-03-22T14:36:55.460Z,41.10
2019-03-22T14:39:27.473Z,39.87
2019-03-22T14:41:59.096Z,39.90
2019-03-22T14:44:31.264Z,37.63
2019-03-22T14:47:02.963Z,50.70
2019-03-22T14:49:35.800Z,66.53
2019-03-22T14:52:07.909Z,52.83
2019-03-22T14:54:39.630Z,46.13
2019-03-22T14:57:11.547Z,47.50
2019-03-22T14:59:44.386Z,45.40
2019-03-22T15:02:16.147Z,46.17
2019-03-22T15:04:48.407Z,41.10
2019-03-22T15:07:20.224Z,41.27
2019-03-22T15:09:52.441Z,56.23
2019-03-22T15:12:25.055Z,43.80
2019-03-22T15:15:14.627Z,41.57
2019-03-22T15:18:11.767Z,40.33
2019-03-22T15:21:09.433Z,40.70
2019-03-22T15:24:05.724Z,41.60
2019-03-22T15:26:53.910Z,41.07
2019-03-22T15:29:59.890Z,40.27
2019-03-22T15:32:50.162Z,41.53
2019-03-22T15:35:38.940Z,43.90
2019-03-22T15:38:39.523Z,37.03
2019-03-22T15:41:13.606Z,41.30
2019-03-22T15:43:45.712Z,47.80
2019-03-22T15:46:19.047Z,44.13
2019-03-22T15:48:50.982Z,40.30
2019-03-22T15:51:22.766Z,43.70
2019-03-22T15:53:58.087Z,44.53
2019-03-22T15:56:29.808Z,43.90
2019-03-22T15:59:01.525Z,32.77
2019-03-22T16:01:34.177Z,32.87
2019-03-22T16:04:06.597Z,33.70
2019-03-22T16:06:38.223Z,40.63
2019-03-22T16:09:11.140Z,40.87
2019-03-22T16:11:42.793Z,41.07
2019-03-22T16:14:14.368Z,44.50
2019-03-22T16:16:45.873Z,39.67
2019-03-22T16:19:17.368Z,37.50
2019-03-22T16:21:50.422Z,35.77
2019-03-22T16:24:23.129Z,36.63
2019-03-22T16:26:55.736Z,34.57
2019-03-22T16:29:29.164Z,35.90
2019-03-22T16:32:02.403Z,36.63
2019-03-22T16:34:34.720Z,38.83
2019-03-22T16:37:06.484Z,38.13
2019-03-22T16:39:38.248Z,36.10
2019-03-22T16:42:09.582Z,36.70
2019-03-22T16:44:41.486Z,41.47
2019-03-22T16:47:13.151Z,42.63
2019-03-22T16:49:44.414Z,43.77
2019-03-22T16:52:17.510Z,41.57
2019-03-22T16:54:49.364Z,41.37
2019-03-22T16:57:21.350Z,47.70
2019-03-22T16:59:54.108Z,52.60
2019-03-22T17:02:26.982Z,48.17
2019-03-22T17:04:59.470Z,37.30
2019-03-22T17:07:31.234Z,41.60
2019-03-22T17:10:05.150Z,36.60
2019-03-22T17:12:36.807Z,35.93
2019-03-22T17:15:10.046Z,37.70
2019-03-22T17:17:42.498Z,34.40
2019-03-22T17:20:15.732Z,35.20
2019-03-22T17:22:47.718Z,37.33
2019-03-22T17:25:20.886Z,34.90
2019-03-22T17:27:53.295Z,33.63
2019-03-22T17:30:25.820Z,34.07
2019-03-22T17:32:58.444Z,34.60
2019-03-22T17:35:31.730Z,38.20
2019-03-22T17:38:04.527Z,34.70
2019-03-22T17:40:37.423Z,35.20
2019-03-22T17:43:09.865Z,35.27
2019-03-22T17:45:41.543Z,33.33
2019-03-22T17:48:13.533Z,33.90
2019-03-22T17:50:47.735Z,33.97
2019-03-22T17:53:20.114Z,33.63
2019-03-22T17:55:52.565Z,34.90
2019-03-22T17:58:53.751Z,33.57
2019-03-22T18:01:27.132Z,33.00
2019-03-22T18:04:00.083Z,36.43
2019-03-22T18:06:31.965Z,32.50
2019-03-22T18:09:05.587Z,35.57
2019-03-22T18:11:38.575Z,34.20
2019-03-22T18:14:11.196Z,253.50
2019-03-22T18:16:43.395Z,40.50
2019-03-22T18:19:15.845Z,32.50
2019-03-22T18:21:48.387Z,36.03
2019-03-22T18:24:21.489Z,29.90
2019-03-22T18:26:54.470Z,31.40
2019-03-22T18:29:27.051Z,33.50
2019-03-22T18:31:59.812Z,51.10
2019-03-22T18:34:34.899Z,35.20
2019-03-22T18:37:06.928Z,34.93
2019-03-22T18:39:39.723Z,35.40
2019-03-22T18:42:12.919Z,34.10
2019-03-22T18:44:45.965Z,32.20
2019-03-22T18:47:19.927Z,33.10
2019-03-22T18:49:52.317Z,33.80
2019-03-22T18:52:24.783Z,32.20
2019-03-22T18:54:57.175Z,38.43
2019-03-22T18:57:29.526Z,34.40
2019-03-22T19:00:02.400Z,34.90
2019-03-22T19:02:36.210Z,35.80
2019-03-22T19:05:10.327Z,36.00
2019-03-22T19:07:43.101Z,38.20
2019-03-22T19:10:16.131Z,37.53
2019-03-22T19:12:49.495Z,40.90
2019-03-22T19:15:22.124Z,40.50
2019-03-22T19:17:55.871Z,36.40
2019-03-22T19:20:28.423Z,39.27
2019-03-22T19:23:01.343Z,35.80
2019-03-22T19:25:35.251Z,40.40
2019-03-22T19:28:08.245Z,38.57
2019-03-22T19:30:41.190Z,37.53
2019-03-22T19:33:14.066Z,60.47
2019-03-22T19:35:47.698Z,40.23
2019-03-22T19:38:21.967Z,45.57
2019-03-22T19:40:56.142Z,41.10
2019-03-22T19:43:28.175Z,77.53
2019-03-22T19:46:01.023Z,45.60
2019-03-22T19:48:34.498Z,45.10
2019-03-22T19:51:08.084Z,43.33
2019-03-22T19:53:41.429Z,41.67
2019-03-22T19:56:14.479Z,44.90
2019-03-22T19:58:47.977Z,47.07
2019-03-22T20:01:20.787Z,46.27
2019-03-22T20:03:54.050Z,49.07
2019-03-22T20:06:27.961Z,49.80
2019-03-22T20:09:00.669Z,49.23
2019-03-22T20:11:33.879Z,51.27
2019-03-22T20:14:06.691Z,52.20
2019-03-22T20:16:39.480Z,50.33
2019-03-22T20:19:12.586Z,50.33
2019-03-22T20:21:45.090Z,48.47
2019-03-22T20:24:17.378Z,50.23
2019-03-22T20:26:50.074Z,50.47
2019-03-22T20:29:23.353Z,50.37
2019-03-22T20:31:57.651Z,48.77
2019-03-22T20:34:31.532Z,50.80
2019-03-22T20:37:06.171Z,52.93
2019-03-22T20:39:38.766Z,54.17
2019-03-22T20:42:11.766Z,55.30
2019-03-22T20:44:44.696Z,55.10
2019-03-22T20:47:17.526Z,53.37
2019-03-22T20:49:50.915Z,54.70
2019-03-22T20:52:25.448Z,58.27
2019-03-22T20:54:59.125Z,60.10
2019-03-22T20:57:32.566Z,57.70
2019-03-22T21:00:06.087Z,61.00
2019-03-22T21:02:39.084Z,59.73
2019-03-22T21:05:12.742Z,58.40
2019-03-22T21:07:45.771Z,58.27
2019-03-22T21:10:19.595Z,57.07
2019-03-22T21:12:53.175Z,55.40
2019-03-22T21:15:26.188Z,55.20
2019-03-22T21:17:59.571Z,54.17
2019-03-22T21:20:32.362Z,56.60
2019-03-22T21:23:05.684Z,53.70
2019-03-22T21:25:38.703Z,54.40
2019-03-22T21:28:11.553Z,55.90
2019-03-22T21:30:44.673Z,56.67
2019-03-22T21:33:17.937Z,53.80
2019-03-22T21:35:51.166Z,55.17
2019-03-22T21:38:24.085Z,54.83
2019-03-22T21:40:57.439Z,56.23
2019-03-22T21:43:30.578Z,52.80
2019-03-22T21:46:04.333Z,56.97
2019-03-22T21:48:36.870Z,61.10
2019-03-22T21:51:09.324Z,56.20
2019-03-22T21:53:41.812Z,54.00
2019-03-22T21:56:13.671Z,52.67
2019-03-22T21:58:46.004Z,53.60
2019-03-22T22:01:18.964Z,58.10
2019-03-22T22:03:50.285Z,53.10
2019-03-22T22:06:21.581Z,53.83
2019-03-22T22:08:53.785Z,54.90
2019-03-22T22:11:26.646Z,55.43
2019-03-22T22:13:58.504Z,52.27
2019-03-22T22:16:30.694Z,52.63
2019-03-22T22:19:02.427Z,54.50
2019-03-22T22:21:35.189Z,54.67
2019-03-22T22:24:10.308Z,51.80
2019-03-22T22:26:41.453Z,53.27
2019-03-22T22:29:13.650Z,53.10
2019-03-22T22:31:45.266Z,52.40
2019-03-22T22:34:16.541Z,51.03
2019-03-22T22:36:47.811Z,52.40
2019-03-22T22:39:18.947Z,57.40
2019-03-22T22:41:50.506Z,51.30
2019-03-22T22:44:22.153Z,52.70
2019-03-22T22:46:53.548Z,51.67
2019-03-22T22:49:24.824Z,52.90
2019-03-22T22:51:57.221Z,51.60
2019-03-22T22:54:28.691Z,55.00
2019-03-22T22:57:00.184Z,55.27
2019-03-22T22:59:32.699Z,54.17
2019-03-22T23:02:04.318Z,54.20
2019-03-22T23:04:35.763Z,48.73
2019-03-22T23:07:07.072Z,51.73
2019-03-22T23:09:38.384Z,51.10
2019-03-22T23:12:09.658Z,48.20
2019-03-22T23:14:40.748Z,51.00
2019-03-22T23:17:13.420Z,51.37
2019-03-22T23:19:45.461Z,48.97
2019-03-22T23:22:16.874Z,49.93
2019-03-22T23:24:53.388Z,48.53
2019-03-22T23:27:25.405Z,48.40
2019-03-22T23:29:57.510Z,47.90
2019-03-22T23:32:29.694Z,50.23
2019-03-22T23:35:02.664Z,53.03
2019-03-22T23:37:35.041Z,53.07
2019-03-22T23:40:07.500Z,49.40
2019-03-22T23:42:39.811Z,48.70
2019-03-22T23:45:13.154Z,48.90
2019-03-22T23:47:46.111Z,52.37
2019-03-22T23:50:17.965Z,53.57
2019-03-22T23:52:49.798Z,50.30
2019-03-22T23:55:21.792Z,50.77
2019-03-22T23:57:54.184Z,51.17
